sensor_id;sensor_type;location;lat;lon;timestamp;P1;durP1;ratioP1;P2;durP2;ratioP2
22644;SDS011;11489;50.834;6.752;2023-05-19T00:00:54;7.65;;;4.15;;
22644;SDS011;11489;50.834;6.752;2023-05-19T00:03:21;6.57;;;4.07;;
22644;SDS011;11489;50.834;6.752;2023-05-19T00:05:47;6.85;;;3.63;;
22644;SDS011;11489;50.834;6.752;2023-05-19T00:08:15;6.60;;;4.07;;
22644;SDS011;11489;50.834;6.752;2023-05-19T00:10:41;8.98;;;4.60;;
22644;SDS011;11489;50.834;6.752;2023-05-19T00:13:07;5.70;;;4.07;;
22644;SDS011;11489;50.834;6.752;2023-05-19T00:15:33;7.72;;;4.20;;
22644;SDS011;11489;50.834;6.752;2023-05-19T00:17:59;8.50;;;3.97;;
22644;SDS011;11489;50.834;6.752;2023-05-19T00:20:25;4.95;;;3.95;;
22644;SDS011;11489;50.834;6.752;2023-05-19T00:22:50;8.27;;;5.00;;
22644;SDS011;11489;50.834;6.752;2023-05-19T00:25:16;8.80;;;4.40;;
22644;SDS011;11489;50.834;6.752;2023-05-19T00:27:42;7.60;;;4.05;;
22644;SDS011;11489;50.834;6.752;2023-05-19T00:30:07;11.18;;;4.53;;
22644;SDS011;11489;50.834;6.752;2023-05-19T00:32:33;8.30;;;4.43;;
22644;SDS011;11489;50.834;6.752;2023-05-19T00:34:59;7.22;;;4.22;;
22644;SDS011;11489;50.834;6.752;2023-05-19T00:37:25;7.97;;;3.90;;
22644;SDS011;11489;50.834;6.752;2023-05-19T00:39:51;8.13;;;4.35;;
22644;SDS011;11489;50.834;6.752;2023-05-19T00:42:17;8.95;;;4.28;;
22644;SDS011;11489;50.834;6.752;2023-05-19T00:44:44;6.70;;;4.20;;
22644;SDS011;11489;50.834;6.752;2023-05-19T00:47:09;7.35;;;4.35;;
22644;SDS011;11489;50.834;6.752;2023-05-19T00:49:35;7.47;;;4.10;;
22644;SDS011;11489;50.834;6.752;2023-05-19T00:52:01;7.13;;;4.35;;
22644;SDS011;11489;50.834;6.752;2023-05-19T00:54:27;9.85;;;4.07;;
22644;SDS011;11489;50.834;6.752;2023-05-19T00:56:53;6.55;;;4.00;;
22644;SDS011;11489;50.834;6.752;2023-05-19T00:59:20;7.05;;;4.30;;
22644;SDS011;11489;50.834;6.752;2023-05-19T01:01:46;6.53;;;4.05;;
22644;SDS011;11489;50.834;6.752;2023-05-19T01:04:19;5.45;;;3.55;;
22644;SDS011;11489;50.834;6.752;2023-05-19T01:06:49;8.27;;;4.30;;
22644;SDS011;11489;50.834;6.752;2023-05-19T01:09:21;7.40;;;4.47;;
22644;SDS011;11489;50.834;6.752;2023-05-19T01:11:47;6.70;;;4.22;;
22644;SDS011;11489;50.834;6.752;2023-05-19T01:14:16;6.65;;;4.30;;
22644;SDS011;11489;50.834;6.752;2023-05-19T01:16:53;7.25;;;4.47;;
22644;SDS011;11489;50.834;6.752;2023-05-19T01:27:53;11.50;;;4.60;;
22644;SDS011;11489;50.834;6.752;2023-05-19T01:32:56;8.88;;;4.60;;
22644;SDS011;11489;50.834;6.752;2023-05-19T01:35:25;6.97;;;4.70;;
22644;SDS011;11489;50.834;6.752;2023-05-19T01:37:58;7.30;;;4.47;;
22644;SDS011;11489;50.834;6.752;2023-05-19T01:40:24;7.63;;;4.10;;
22644;SDS011;11489;50.834;6.752;2023-05-19T01:42:55;9.00;;;4.53;;
22644;SDS011;11489;50.834;6.752;2023-05-19T01:45:22;8.57;;;4.32;;
22644;SDS011;11489;50.834;6.752;2023-05-19T01:47:51;7.47;;;4.53;;
22644;SDS011;11489;50.834;6.752;2023-05-19T01:50:19;8.73;;;4.77;;
22644;SDS011;11489;50.834;6.752;2023-05-19T01:52:45;7.20;;;4.38;;
22644;SDS011;11489;50.834;6.752;2023-05-19T01:55:11;7.97;;;4.63;;
22644;SDS011;11489;50.834;6.752;2023-05-19T01:57:42;6.23;;;4.30;;
22644;SDS011;11489;50.834;6.752;2023-05-19T02:00:22;6.60;;;4.30;;
22644;SDS011;11489;50.834;6.752;2023-05-19T02:06:02;5.65;;;4.32;;
22644;SDS011;11489;50.834;6.752;2023-05-19T02:09:01;7.57;;;4.43;;
22644;SDS011;11489;50.834;6.752;2023-05-19T02:14:14;8.80;;;4.80;;
22644;SDS011;11489;50.834;6.752;2023-05-19T02:16:49;10.30;;;4.83;;
22644;SDS011;11489;50.834;6.752;2023-05-19T02:19:23;7.70;;;5.30;;
22644;SDS011;11489;50.834;6.752;2023-05-19T02:21:56;10.30;;;5.73;;
22644;SDS011;11489;50.834;6.752;2023-05-19T02:24:21;8.67;;;4.80;;
22644;SDS011;11489;50.834;6.752;2023-05-19T02:26:48;6.87;;;4.83;;
22644;SDS011;11489;50.834;6.752;2023-05-19T02:29:15;11.20;;;5.10;;
22644;SDS011;11489;50.834;6.752;2023-05-19T02:31:41;8.00;;;4.90;;
22644;SDS011;11489;50.834;6.752;2023-05-19T02:34:07;7.90;;;5.00;;
22644;SDS011;11489;50.834;6.752;2023-05-19T02:36:33;6.00;;;4.63;;
22644;SDS011;11489;50.834;6.752;2023-05-19T02:39:01;8.17;;;4.70;;
22644;SDS011;11489;50.834;6.752;2023-05-19T02:41:27;8.17;;;4.90;;
22644;SDS011;11489;50.834;6.752;2023-05-19T02:43:54;9.60;;;4.67;;
22644;SDS011;11489;50.834;6.752;2023-05-19T02:46:20;8.77;;;4.73;;
22644;SDS011;11489;50.834;6.752;2023-05-19T02:48:45;6.90;;;4.63;;
22644;SDS011;11489;50.834;6.752;2023-05-19T02:51:11;9.00;;;4.70;;
22644;SDS011;11489;50.834;6.752;2023-05-19T02:53:36;7.00;;;4.53;;
22644;SDS011;11489;50.834;6.752;2023-05-19T02:56:02;11.30;;;4.80;;
22644;SDS011;11489;50.834;6.752;2023-05-19T02:58:28;8.93;;;4.90;;
22644;SDS011;11489;50.834;6.752;2023-05-19T03:00:54;7.33;;;4.80;;
22644;SDS011;11489;50.834;6.752;2023-05-19T03:03:20;7.30;;;4.30;;
22644;SDS011;11489;50.834;6.752;2023-05-19T03:05:46;9.37;;;4.80;;
22644;SDS011;11489;50.834;6.752;2023-05-19T03:08:12;8.60;;;4.93;;
22644;SDS011;11489;50.834;6.752;2023-05-19T03:10:37;8.33;;;4.63;;
22644;SDS011;11489;50.834;6.752;2023-05-19T03:13:03;9.50;;;5.10;;
22644;SDS011;11489;50.834;6.752;2023-05-19T03:15:29;9.00;;;5.10;;
22644;SDS011;11489;50.834;6.752;2023-05-19T03:17:55;8.00;;;4.73;;
22644;SDS011;11489;50.834;6.752;2023-05-19T03:20:21;8.27;;;5.23;;
22644;SDS011;11489;50.834;6.752;2023-05-19T03:22:46;7.83;;;4.47;;
22644;SDS011;11489;50.834;6.752;2023-05-19T03:25:12;9.00;;;4.70;;
22644;SDS011;11489;50.834;6.752;2023-05-19T03:27:38;7.83;;;4.70;;
22644;SDS011;11489;50.834;6.752;2023-05-19T03:30:04;7.17;;;4.63;;
22644;SDS011;11489;50.834;6.752;2023-05-19T03:32:30;8.20;;;4.40;;
22644;SDS011;11489;50.834;6.752;2023-05-19T03:34:57;10.97;;;4.40;;
22644;SDS011;11489;50.834;6.752;2023-05-19T03:37:22;9.63;;;4.57;;
22644;SDS011;11489;50.834;6.752;2023-05-19T03:39:48;10.77;;;4.70;;
22644;SDS011;11489;50.834;6.752;2023-05-19T03:42:14;7.47;;;4.87;;
22644;SDS011;11489;50.834;6.752;2023-05-19T03:44:40;10.40;;;5.07;;
22644;SDS011;11489;50.834;6.752;2023-05-19T03:47:05;7.07;;;4.83;;
22644;SDS011;11489;50.834;6.752;2023-05-19T03:49:31;9.93;;;4.70;;
22644;SDS011;11489;50.834;6.752;2023-05-19T03:51:57;6.97;;;4.67;;
22644;SDS011;11489;50.834;6.752;2023-05-19T03:54:22;9.03;;;4.80;;
22644;SDS011;11489;50.834;6.752;2023-05-19T03:56:48;9.63;;;5.20;;
22644;SDS011;11489;50.834;6.752;2023-05-19T03:59:14;7.43;;;4.90;;
22644;SDS011;11489;50.834;6.752;2023-05-19T04:01:40;7.82;;;4.88;;
22644;SDS011;11489;50.834;6.752;2023-05-19T04:04:06;6.00;;;4.63;;
22644;SDS011;11489;50.834;6.752;2023-05-19T04:06:31;9.77;;;4.70;;
22644;SDS011;11489;50.834;6.752;2023-05-19T04:08:58;7.93;;;4.72;;
22644;SDS011;11489;50.834;6.752;2023-05-19T04:11:24;6.32;;;4.45;;
22644;SDS011;11489;50.834;6.752;2023-05-19T04:13:49;7.95;;;4.53;;
22644;SDS011;11489;50.834;6.752;2023-05-19T04:16:15;8.07;;;4.18;;
22644;SDS011;11489;50.834;6.752;2023-05-19T04:18:41;8.02;;;5.03;;
22644;SDS011;11489;50.834;6.752;2023-05-19T04:21:06;7.47;;;4.75;;
22644;SDS011;11489;50.834;6.752;2023-05-19T04:23:32;7.63;;;5.20;;
22644;SDS011;11489;50.834;6.752;2023-05-19T04:25:58;8.82;;;5.55;;
22644;SDS011;11489;50.834;6.752;2023-05-19T04:28:25;7.63;;;5.22;;
22644;SDS011;11489;50.834;6.752;2023-05-19T04:30:51;6.97;;;5.10;;
22644;SDS011;11489;50.834;6.752;2023-05-19T04:33:17;8.25;;;4.85;;
22644;SDS011;11489;50.834;6.752;2023-05-19T04:35:44;9.10;;;5.25;;
22644;SDS011;11489;50.834;6.752;2023-05-19T04:38:10;8.18;;;4.93;;
22644;SDS011;11489;50.834;6.752;2023-05-19T04:40:36;11.40;;;5.43;;
22644;SDS011;11489;50.834;6.752;2023-05-19T04:43:06;8.93;;;5.25;;
22644;SDS011;11489;50.834;6.752;2023-05-19T04:45:33;6.75;;;4.95;;
22644;SDS011;11489;50.834;6.752;2023-05-19T04:48:01;7.82;;;5.28;;
22644;SDS011;11489;50.834;6.752;2023-05-19T04:50:27;10.15;;;5.40;;
22644;SDS011;11489;50.834;6.752;2023-05-19T04:52:54;10.00;;;5.63;;
22644;SDS011;11489;50.834;6.752;2023-05-19T04:55:22;7.50;;;5.40;;
22644;SDS011;11489;50.834;6.752;2023-05-19T04:57:48;8.38;;;5.47;;
22644;SDS011;11489;50.834;6.752;2023-05-19T05:00:14;8.98;;;5.88;;
22644;SDS011;11489;50.834;6.752;2023-05-19T05:02:40;10.18;;;5.70;;
22644;SDS011;11489;50.834;6.752;2023-05-19T05:05:06;8.65;;;5.70;;
22644;SDS011;11489;50.834;6.752;2023-05-19T05:07:33;9.10;;;5.35;;
22644;SDS011;11489;50.834;6.752;2023-05-19T05:09:59;8.98;;;5.80;;
22644;SDS011;11489;50.834;6.752;2023-05-19T05:12:24;9.15;;;5.97;;
22644;SDS011;11489;50.834;6.752;2023-05-19T05:14:50;12.20;;;6.43;;
22644;SDS011;11489;50.834;6.752;2023-05-19T05:17:16;9.73;;;5.90;;
22644;SDS011;11489;50.834;6.752;2023-05-19T05:19:42;10.90;;;5.75;;
22644;SDS011;11489;50.834;6.752;2023-05-19T05:22:08;8.88;;;5.65;;
22644;SDS011;11489;50.834;6.752;2023-05-19T05:24:34;9.40;;;5.93;;
22644;SDS011;11489;50.834;6.752;2023-05-19T05:27:00;11.05;;;5.78;;
22644;SDS011;11489;50.834;6.752;2023-05-19T05:29:25;9.73;;;6.22;;
22644;SDS011;11489;50.834;6.752;2023-05-19T05:31:51;8.93;;;6.22;;
22644;SDS011;11489;50.834;6.752;2023-05-19T05:34:17;10.82;;;6.00;;
22644;SDS011;11489;50.834;6.752;2023-05-19T05:36:42;11.18;;;6.30;;
22644;SDS011;11489;50.834;6.752;2023-05-19T05:39:08;12.88;;;6.45;;
22644;SDS011;11489;50.834;6.752;2023-05-19T05:41:34;9.93;;;6.97;;
22644;SDS011;11489;50.834;6.752;2023-05-19T05:44:00;11.57;;;6.60;;
22644;SDS011;11489;50.834;6.752;2023-05-19T05:46:26;11.15;;;5.93;;
22644;SDS011;11489;50.834;6.752;2023-05-19T05:48:52;11.13;;;6.38;;
22644;SDS011;11489;50.834;6.752;2023-05-19T05:51:21;12.48;;;6.45;;
22644;SDS011;11489;50.834;6.752;2023-05-19T05:53:50;12.13;;;6.18;;
22644;SDS011;11489;50.834;6.752;2023-05-19T05:56:17;12.45;;;6.80;;
22644;SDS011;11489;50.834;6.752;2023-05-19T05:58:43;11.05;;;6.72;;
22644;SDS011;11489;50.834;6.752;2023-05-19T06:01:09;11.00;;;6.43;;
22644;SDS011;11489;50.834;6.752;2023-05-19T06:03:36;10.48;;;6.63;;
22644;SDS011;11489;50.834;6.752;2023-05-19T06:06:06;10.68;;;6.70;;
22644;SDS011;11489;50.834;6.752;2023-05-19T06:08:32;16.50;;;7.10;;
22644;SDS011;11489;50.834;6.752;2023-05-19T06:10:57;13.27;;;6.72;;
22644;SDS011;11489;50.834;6.752;2023-05-19T06:13:23;10.45;;;6.78;;
22644;SDS011;11489;50.834;6.752;2023-05-19T06:15:50;12.27;;;6.97;;
22644;SDS011;11489;50.834;6.752;2023-05-19T06:18:17;10.20;;;6.63;;
22644;SDS011;11489;50.834;6.752;2023-05-19T06:20:42;12.07;;;7.18;;
22644;SDS011;11489;50.834;6.752;2023-05-19T06:23:08;10.20;;;6.50;;
22644;SDS011;11489;50.834;6.752;2023-05-19T06:25:34;13.68;;;6.53;;
22644;SDS011;11489;50.834;6.752;2023-05-19T06:28:00;11.73;;;6.20;;
22644;SDS011;11489;50.834;6.752;2023-05-19T06:30:26;9.63;;;6.28;;
22644;SDS011;11489;50.834;6.752;2023-05-19T06:32:51;9.77;;;6.63;;
22644;SDS011;11489;50.834;6.752;2023-05-19T06:35:17;10.25;;;6.15;;
22644;SDS011;11489;50.834;6.752;2023-05-19T06:37:42;11.60;;;6.57;;
22644;SDS011;11489;50.834;6.752;2023-05-19T06:40:08;11.82;;;6.28;;
22644;SDS011;11489;50.834;6.752;2023-05-19T06:42:34;11.55;;;6.00;;
22644;SDS011;11489;50.834;6.752;2023-05-19T06:45:00;11.07;;;5.82;;
22644;SDS011;11489;50.834;6.752;2023-05-19T06:47:26;10.32;;;5.40;;
22644;SDS011;11489;50.834;6.752;2023-05-19T06:49:51;10.98;;;5.90;;
22644;SDS011;11489;50.834;6.752;2023-05-19T06:52:20;11.77;;;5.85;;
22644;SDS011;11489;50.834;6.752;2023-05-19T06:54:47;12.88;;;6.20;;
22644;SDS011;11489;50.834;6.752;2023-05-19T06:57:12;14.13;;;6.90;;
22644;SDS011;11489;50.834;6.752;2023-05-19T06:59:38;10.40;;;6.00;;
22644;SDS011;11489;50.834;6.752;2023-05-19T07:02:08;11.38;;;6.35;;
22644;SDS011;11489;50.834;6.752;2023-05-19T07:04:37;15.65;;;6.97;;
22644;SDS011;11489;50.834;6.752;2023-05-19T07:07:03;11.52;;;6.13;;
22644;SDS011;11489;50.834;6.752;2023-05-19T07:09:29;9.90;;;6.13;;
22644;SDS011;11489;50.834;6.752;2023-05-19T07:11:55;11.27;;;5.90;;
22644;SDS011;11489;50.834;6.752;2023-05-19T07:14:21;14.30;;;6.43;;
22644;SDS011;11489;50.834;6.752;2023-05-19T07:16:47;12.32;;;6.40;;
22644;SDS011;11489;50.834;6.752;2023-05-19T07:19:12;12.80;;;6.18;;
22644;SDS011;11489;50.834;6.752;2023-05-19T07:21:38;12.20;;;5.88;;
22644;SDS011;11489;50.834;6.752;2023-05-19T07:24:03;12.63;;;6.00;;
22644;SDS011;11489;50.834;6.752;2023-05-19T07:26:29;9.98;;;5.60;;
22644;SDS011;11489;50.834;6.752;2023-05-19T07:28:55;10.20;;;5.65;;
22644;SDS011;11489;50.834;6.752;2023-05-19T07:31:21;10.90;;;5.43;;
22644;SDS011;11489;50.834;6.752;2023-05-19T07:33:47;8.23;;;4.97;;
22644;SDS011;11489;50.834;6.752;2023-05-19T07:36:13;11.07;;;4.85;;
22644;SDS011;11489;50.834;6.752;2023-05-19T07:38:38;8.93;;;4.38;;
22644;SDS011;11489;50.834;6.752;2023-05-19T07:41:04;11.15;;;4.38;;
22644;SDS011;11489;50.834;6.752;2023-05-19T07:43:30;6.10;;;3.88;;
22644;SDS011;11489;50.834;6.752;2023-05-19T07:45:55;6.65;;;3.70;;
22644;SDS011;11489;50.834;6.752;2023-05-19T07:48:21;5.97;;;3.30;;
22644;SDS011;11489;50.834;6.752;2023-05-19T07:50:49;8.30;;;3.10;;
22644;SDS011;11489;50.834;6.752;2023-05-19T07:53:16;6.40;;;3.08;;
22644;SDS011;11489;50.834;6.752;2023-05-19T07:55:46;8.05;;;3.30;;
22644;SDS011;11489;50.834;6.752;2023-05-19T07:58:13;6.07;;;2.88;;
22644;SDS011;11489;50.834;6.752;2023-05-19T08:00:39;6.97;;;2.72;;
22644;SDS011;11489;50.834;6.752;2023-05-19T08:03:10;5.53;;;2.55;;
22644;SDS011;11489;50.834;6.752;2023-05-19T08:05:35;8.02;;;2.95;;
22644;SDS011;11489;50.834;6.752;2023-05-19T08:08:02;6.35;;;2.97;;
22644;SDS011;11489;50.834;6.752;2023-05-19T08:10:27;4.60;;;2.53;;
22644;SDS011;11489;50.834;6.752;2023-05-19T08:12:53;8.77;;;3.08;;
22644;SDS011;11489;50.834;6.752;2023-05-19T08:15:19;11.45;;;3.30;;
22644;SDS011;11489;50.834;6.752;2023-05-19T08:17:45;6.25;;;3.03;;
22644;SDS011;11489;50.834;6.752;2023-05-19T08:20:10;4.97;;;2.70;;
22644;SDS011;11489;50.834;6.752;2023-05-19T08:22:36;6.35;;;2.78;;
22644;SDS011;11489;50.834;6.752;2023-05-19T08:25:02;6.68;;;2.67;;
22644;SDS011;11489;50.834;6.752;2023-05-19T08:27:29;7.05;;;2.50;;
22644;SDS011;11489;50.834;6.752;2023-05-19T08:29:55;7.75;;;2.40;;
22644;SDS011;11489;50.834;6.752;2023-05-19T08:32:21;5.18;;;2.50;;
22644;SDS011;11489;50.834;6.752;2023-05-19T08:34:47;8.82;;;2.67;;
22644;SDS011;11489;50.834;6.752;2023-05-19T08:37:13;9.80;;;3.40;;
22644;SDS011;11489;50.834;6.752;2023-05-19T08:39:38;7.35;;;3.30;;
22644;SDS011;11489;50.834;6.752;2023-05-19T08:42:04;16.95;;;3.90;;
22644;SDS011;11489;50.834;6.752;2023-05-19T08:44:32;9.80;;;3.80;;
22644;SDS011;11489;50.834;6.752;2023-05-19T08:46:59;11.38;;;4.45;;
22644;SDS011;11489;50.834;6.752;2023-05-19T08:49:30;11.32;;;4.88;;
22644;SDS011;11489;50.834;6.752;2023-05-19T08:55:04;13.50;;;5.07;;
22644;SDS011;11489;50.834;6.752;2023-05-19T08:57:34;14.27;;;5.38;;
22644;SDS011;11489;50.834;6.752;2023-05-19T09:00:01;14.88;;;5.22;;
22644;SDS011;11489;50.834;6.752;2023-05-19T09:02:33;11.73;;;4.72;;
22644;SDS011;11489;50.834;6.752;2023-05-19T09:05:00;10.38;;;4.57;;
22644;SDS011;11489;50.834;6.752;2023-05-19T09:07:28;11.85;;;4.70;;
22644;SDS011;11489;50.834;6.752;2023-05-19T09:09:58;12.32;;;4.20;;
22644;SDS011;11489;50.834;6.752;2023-05-19T09:12:25;9.68;;;3.95;;
22644;SDS011;11489;50.834;6.752;2023-05-19T09:14:51;8.02;;;4.07;;
22644;SDS011;11489;50.834;6.752;2023-05-19T09:17:17;10.93;;;3.92;;
22644;SDS011;11489;50.834;6.752;2023-05-19T09:19:43;10.60;;;4.15;;
22644;SDS011;11489;50.834;6.752;2023-05-19T09:22:13;7.38;;;3.80;;
22644;SDS011;11489;50.834;6.752;2023-05-19T09:24:40;11.65;;;4.00;;
22644;SDS011;11489;50.834;6.752;2023-05-19T09:27:06;9.23;;;3.20;;
22644;SDS011;11489;50.834;6.752;2023-05-19T09:29:32;8.73;;;3.42;;
22644;SDS011;11489;50.834;6.752;2023-05-19T09:31:57;5.32;;;2.85;;
22644;SDS011;11489;50.834;6.752;2023-05-19T09:34:29;10.43;;;3.20;;
22644;SDS011;11489;50.834;6.752;2023-05-19T09:36:55;7.65;;;3.08;;
22644;SDS011;11489;50.834;6.752;2023-05-19T09:39:22;9.25;;;2.85;;
22644;SDS011;11489;50.834;6.752;2023-05-19T09:41:52;6.00;;;2.65;;
22644;SDS011;11489;50.834;6.752;2023-05-19T09:46:48;6.80;;;2.35;;
22644;SDS011;11489;50.834;6.752;2023-05-19T09:49:25;4.55;;;2.00;;
22644;SDS011;11489;50.834;6.752;2023-05-19T09:51:55;5.63;;;2.17;;
22644;SDS011;11489;50.834;6.752;2023-05-19T09:54:22;8.55;;;2.22;;
22644;SDS011;11489;50.834;6.752;2023-05-19T09:56:58;5.32;;;2.35;;
22644;SDS011;11489;50.834;6.752;2023-05-19T09:59:28;8.35;;;2.53;;
22644;SDS011;11489;50.834;6.752;2023-05-19T10:01:55;5.70;;;2.42;;
22644;SDS011;11489;50.834;6.752;2023-05-19T10:04:25;5.70;;;2.53;;
22644;SDS011;11489;50.834;6.752;2023-05-19T10:06:55;4.07;;;2.33;;
22644;SDS011;11489;50.834;6.752;2023-05-19T10:09:25;3.33;;;2.00;;
22644;SDS011;11489;50.834;6.752;2023-05-19T10:11:52;5.32;;;1.85;;
22644;SDS011;11489;50.834;6.752;2023-05-19T10:14:26;4.40;;;1.80;;
22644;SDS011;11489;50.834;6.752;2023-05-19T10:16:54;4.97;;;1.83;;
22644;SDS011;11489;50.834;6.752;2023-05-19T10:19:27;3.55;;;1.42;;
22644;SDS011;11489;50.834;6.752;2023-05-19T10:21:53;4.60;;;1.65;;
22644;SDS011;11489;50.834;6.752;2023-05-19T10:24:20;5.00;;;2.00;;
22644;SDS011;11489;50.834;6.752;2023-05-19T10:27:05;5.93;;;1.77;;
22644;SDS011;11489;50.834;6.752;2023-05-19T10:29:35;2.80;;;1.52;;
22644;SDS011;11489;50.834;6.752;2023-05-19T10:32:05;4.25;;;1.60;;
22644;SDS011;11489;50.834;6.752;2023-05-19T10:34:46;4.78;;;1.52;;
22644;SDS011;11489;50.834;6.752;2023-05-19T10:40:26;5.25;;;1.83;;
22644;SDS011;11489;50.834;6.752;2023-05-19T10:43:02;4.82;;;1.90;;
22644;SDS011;11489;50.834;6.752;2023-05-19T10:45:34;6.75;;;1.88;;
22644;SDS011;11489;50.834;6.752;2023-05-19T10:48:10;5.05;;;1.80;;
22644;SDS011;11489;50.834;6.752;2023-05-19T10:50:39;3.38;;;1.67;;
22644;SDS011;11489;50.834;6.752;2023-05-19T10:53:12;5.35;;;2.00;;
22644;SDS011;11489;50.834;6.752;2023-05-19T10:55:52;3.47;;;1.80;;
22644;SDS011;11489;50.834;6.752;2023-05-19T11:01:14;4.10;;;1.60;;
22644;SDS011;11489;50.834;6.752;2023-05-19T11:03:45;6.75;;;2.03;;
22644;SDS011;11489;50.834;6.752;2023-05-19T11:09:01;5.07;;;1.52;;
22644;SDS011;11489;50.834;6.752;2023-05-19T11:11:43;4.47;;;1.83;;
22644;SDS011;11489;50.834;6.752;2023-05-19T11:14:17;2.72;;;1.65;;
22644;SDS011;11489;50.834;6.752;2023-05-19T11:16:45;5.75;;;1.95;;
22644;SDS011;11489;50.834;6.752;2023-05-19T11:19:24;7.18;;;2.03;;
22644;SDS011;11489;50.834;6.752;2023-05-19T11:22:07;4.88;;;1.98;;
22644;SDS011;11489;50.834;6.752;2023-05-19T11:24:35;5.30;;;1.83;;
22644;SDS011;11489;50.834;6.752;2023-05-19T11:27:16;4.55;;;1.88;;
22644;SDS011;11489;50.834;6.752;2023-05-19T11:29:41;4.07;;;1.90;;
22644;SDS011;11489;50.834;6.752;2023-05-19T11:32:07;6.28;;;1.80;;
22644;SDS011;11489;50.834;6.752;2023-05-19T11:34:35;2.42;;;1.40;;
22644;SDS011;11489;50.834;6.752;2023-05-19T11:37:03;2.88;;;1.67;;
22644;SDS011;11489;50.834;6.752;2023-05-19T11:39:30;5.43;;;1.90;;
22644;SDS011;11489;50.834;6.752;2023-05-19T11:41:57;4.68;;;1.90;;
22644;SDS011;11489;50.834;6.752;2023-05-19T11:44:23;5.57;;;1.90;;
22644;SDS011;11489;50.834;6.752;2023-05-19T11:46:48;4.03;;;1.77;;
22644;SDS011;11489;50.834;6.752;2023-05-19T11:49:14;3.17;;;1.70;;
22644;SDS011;11489;50.834;6.752;2023-05-19T11:51:43;5.82;;;1.92;;
22644;SDS011;11489;50.834;6.752;2023-05-19T11:54:10;4.38;;;2.00;;
22644;SDS011;11489;50.834;6.752;2023-05-19T11:56:40;2.20;;;1.60;;
22644;SDS011;11489;50.834;6.752;2023-05-19T11:59:09;4.75;;;1.85;;
22644;SDS011;11489;50.834;6.752;2023-05-19T12:01:35;5.47;;;1.63;;
22644;SDS011;11489;50.834;6.752;2023-05-19T12:04:01;3.50;;;1.45;;
22644;SDS011;11489;50.834;6.752;2023-05-19T12:06:32;7.85;;;2.20;;
22644;SDS011;11489;50.834;6.752;2023-05-19T12:08:58;5.75;;;1.92;;
22644;SDS011;11489;50.834;6.752;2023-05-19T12:11:26;3.10;;;1.55;;
22644;SDS011;11489;50.834;6.752;2023-05-19T12:13:59;7.93;;;1.60;;
22644;SDS011;11489;50.834;6.752;2023-05-19T12:16:32;4.65;;;1.95;;
22644;SDS011;11489;50.834;6.752;2023-05-19T12:18:59;3.88;;;1.90;;
22644;SDS011;11489;50.834;6.752;2023-05-19T12:21:25;2.72;;;1.70;;
22644;SDS011;11489;50.834;6.752;2023-05-19T12:23:51;3.80;;;1.65;;
22644;SDS011;11489;50.834;6.752;2023-05-19T12:26:18;4.47;;;1.80;;
22644;SDS011;11489;50.834;6.752;2023-05-19T12:28:46;3.80;;;1.38;;
22644;SDS011;11489;50.834;6.752;2023-05-19T12:31:12;6.55;;;2.00;;
22644;SDS011;11489;50.834;6.752;2023-05-19T12:33:38;3.35;;;1.77;;
22644;SDS011;11489;50.834;6.752;2023-05-19T12:36:03;4.25;;;1.77;;
22644;SDS011;11489;50.834;6.752;2023-05-19T12:38:29;4.18;;;1.90;;
22644;SDS011;11489;50.834;6.752;2023-05-19T12:40:57;4.30;;;1.67;;
22644;SDS011;11489;50.834;6.752;2023-05-19T12:43:24;2.97;;;1.52;;
22644;SDS011;11489;50.834;6.752;2023-05-19T12:45:50;4.35;;;1.67;;
22644;SDS011;11489;50.834;6.752;2023-05-19T12:48:16;3.88;;;1.83;;
22644;SDS011;11489;50.834;6.752;2023-05-19T12:50:42;5.55;;;1.60;;
22644;SDS011;11489;50.834;6.752;2023-05-19T12:53:11;4.35;;;1.63;;
22644;SDS011;11489;50.834;6.752;2023-05-19T12:55:40;2.85;;;1.48;;
22644;SDS011;11489;50.834;6.752;2023-05-19T12:58:07;4.82;;;1.80;;
22644;SDS011;11489;50.834;6.752;2023-05-19T13:00:33;3.60;;;1.60;;
22644;SDS011;11489;50.834;6.752;2023-05-19T13:03:13;5.57;;;1.80;;
22644;SDS011;11489;50.834;6.752;2023-05-19T13:05:44;3.88;;;1.77;;
22644;SDS011;11489;50.834;6.752;2023-05-19T13:08:12;3.75;;;1.50;;
22644;SDS011;11489;50.834;6.752;2023-05-19T13:10:40;3.80;;;1.73;;
22644;SDS011;11489;50.834;6.752;2023-05-19T13:13:07;2.67;;;1.58;;
22644;SDS011;11489;50.834;6.752;2023-05-19T13:15:35;4.10;;;1.60;;
22644;SDS011;11489;50.834;6.752;2023-05-19T13:18:03;5.38;;;1.73;;
22644;SDS011;11489;50.834;6.752;2023-05-19T13:20:30;3.30;;;1.83;;
22644;SDS011;11489;50.834;6.752;2023-05-19T13:22:59;4.18;;;1.80;;
22644;SDS011;11489;50.834;6.752;2023-05-19T13:25:26;3.33;;;1.50;;
22644;SDS011;11489;50.834;6.752;2023-05-19T13:27:52;3.75;;;1.80;;
22644;SDS011;11489;50.834;6.752;2023-05-19T13:30:19;3.10;;;1.60;;
22644;SDS011;11489;50.834;6.752;2023-05-19T13:32:46;3.83;;;1.88;;
22644;SDS011;11489;50.834;6.752;2023-05-19T13:35:12;4.05;;;1.80;;
22644;SDS011;11489;50.834;6.752;2023-05-19T13:37:40;7.00;;;1.60;;
22644;SDS011;11489;50.834;6.752;2023-05-19T13:40:06;3.72;;;1.90;;
22644;SDS011;11489;50.834;6.752;2023-05-19T13:42:32;3.38;;;1.77;;
22644;SDS011;11489;50.834;6.752;2023-05-19T13:44:59;3.47;;;1.70;;
22644;SDS011;11489;50.834;6.752;2023-05-19T13:47:25;3.05;;;1.52;;
22644;SDS011;11489;50.834;6.752;2023-05-19T13:49:51;4.85;;;1.50;;
22644;SDS011;11489;50.834;6.752;2023-05-19T13:52:17;3.28;;;1.50;;
22644;SDS011;11489;50.834;6.752;2023-05-19T13:54:44;3.28;;;1.60;;
22644;SDS011;11489;50.834;6.752;2023-05-19T13:57:10;3.53;;;1.70;;
22644;SDS011;11489;50.834;6.752;2023-05-19T13:59:36;2.10;;;1.40;;
22644;SDS011;11489;50.834;6.752;2023-05-19T14:02:02;5.00;;;1.60;;
22644;SDS011;11489;50.834;6.752;2023-05-19T14:04:29;4.20;;;1.73;;
22644;SDS011;11489;50.834;6.752;2023-05-19T14:06:55;4.00;;;1.70;;
22644;SDS011;11489;50.834;6.752;2023-05-19T14:09:21;3.25;;;1.58;;
22644;SDS011;11489;50.834;6.752;2023-05-19T14:11:47;3.55;;;1.90;;
22644;SDS011;11489;50.834;6.752;2023-05-19T14:14:12;3.17;;;1.70;;
22644;SDS011;11489;50.834;6.752;2023-05-19T14:16:39;4.45;;;1.80;;
22644;SDS011;11489;50.834;6.752;2023-05-19T14:19:05;3.38;;;1.77;;
22644;SDS011;11489;50.834;6.752;2023-05-19T14:21:31;3.00;;;1.88;;
22644;SDS011;11489;50.834;6.752;2023-05-19T14:23:56;4.45;;;1.85;;
22644;SDS011;11489;50.834;6.752;2023-05-19T14:26:22;6.47;;;1.88;;
22644;SDS011;11489;50.834;6.752;2023-05-19T14:28:48;3.75;;;1.73;;
22644;SDS011;11489;50.834;6.752;2023-05-19T14:31:14;5.38;;;1.80;;
22644;SDS011;11489;50.834;6.752;2023-05-19T14:33:40;4.40;;;1.75;;
22644;SDS011;11489;50.834;6.752;2023-05-19T14:36:09;2.90;;;1.55;;
22644;SDS011;11489;50.834;6.752;2023-05-19T14:38:35;3.47;;;1.45;;
22644;SDS011;11489;50.834;6.752;2023-05-19T14:41:01;4.38;;;2.00;;
22644;SDS011;11489;50.834;6.752;2023-05-19T14:43:27;4.32;;;1.63;;
22644;SDS011;11489;50.834;6.752;2023-05-19T14:45:52;3.78;;;1.45;;
22644;SDS011;11489;50.834;6.752;2023-05-19T14:48:18;3.75;;;1.75;;
22644;SDS011;11489;50.834;6.752;2023-05-19T14:50:45;3.22;;;1.77;;
22644;SDS011;11489;50.834;6.752;2023-05-19T14:53:12;3.17;;;1.70;;
22644;SDS011;11489;50.834;6.752;2023-05-19T14:55:38;3.95;;;1.65;;
22644;SDS011;11489;50.834;6.752;2023-05-19T14:58:04;4.65;;;1.48;;
22644;SDS011;11489;50.834;6.752;2023-05-19T15:00:29;3.50;;;1.55;;
22644;SDS011;11489;50.834;6.752;2023-05-19T15:02:55;4.75;;;1.73;;
22644;SDS011;11489;50.834;6.752;2023-05-19T15:05:21;4.25;;;1.70;;
22644;SDS011;11489;50.834;6.752;2023-05-19T15:07:48;3.90;;;1.50;;
22644;SDS011;11489;50.834;6.752;2023-05-19T15:10:14;3.20;;;1.60;;
22644;SDS011;11489;50.834;6.752;2023-05-19T15:12:41;4.90;;;1.70;;
22644;SDS011;11489;50.834;6.752;2023-05-19T15:15:07;2.08;;;1.25;;
22644;SDS011;11489;50.834;6.752;2023-05-19T15:17:33;7.18;;;1.70;;